Time;durP1;ratioP1;P1;durP2;ratioP2;P2;SDS_P1;SDS_P2;PMS_P1;PMS_P2;Temp;Humidity;BMP_temperature;BMP_pressure;BME280_temperature;BME280_humidity;BME280_pressure;Samples;Min_cycle;Max_cycle;Signal;HPM_P1;HPM_P2
2022/03/08 00:02:23;;;;;;;25.80;19.75;;;0.70;60.30;;;;;;4936449;29;20198;-88
2022/03/08 00:04:49;;;;;;;19.45;17.42;;;0.70;60.10;;;;;;4940056;29;20614;-87
2022/03/08 00:07:16;;;;;;;22.45;19.30;;;0.70;60.20;;;;;;4931525;29;20210;-87
2022/03/08 00:09:43;;;;;;;24.45;18.83;;;0.70;60.50;;;;;;4948815;29;20230;-87
2022/03/08 00:12:11;;;;;;;21.70;18.13;;;0.60;60.90;;;;;;4933753;29;20230;-87
2022/03/08 00:14:38;;;;;;;26.08;20.77;;;0.60;61.20;;;;;;4923159;29;20562;-88
2022/03/08 00:17:06;;;;;;;28.35;20.35;;;0.50;61.30;;;;;;4924532;29;20205;-88
2022/03/08 00:19:33;;;;;;;25.23;19.50;;;0.40;61.60;;;;;;4931418;29;20218;-89
2022/03/08 00:21:59;;;;;;;27.58;20.15;;;0.40;62.20;;;;;;4935747;29;20209;-87
2022/03/08 00:24:26;;;;;;;23.08;20.15;;;0.40;62.60;;;;;;4931866;29;20209;-87
2022/03/08 00:26:53;;;;;;;23.95;19.27;;;0.50;62.70;;;;;;4936638;29;20203;-88
2022/03/08 00:29:20;;;;;;;21.80;18.95;;;0.40;62.80;;;;;;4917268;29;20209;-87
2022/03/08 00:31:46;;;;;;;25.10;20.40;;;0.30;63.10;;;;;;4924092;29;20229;-88
2022/03/08 00:34:14;;;;;;;26.65;20.90;;;0.30;63.90;;;;;;4929265;29;20203;-87
2022/03/08 00:36:43;;;;;;;27.02;20.02;;;0.20;63.80;;;;;;4920816;29;20199;-87
2022/03/08 00:39:09;;;;;;;24.77;21.20;;;0.20;64.60;;;;;;4930390;29;20197;-87
2022/03/08 00:41:37;;;;;;;23.80;19.85;;;0.20;64.70;;;;;;4945120;29;20196;-87
2022/03/08 00:44:05;;;;;;;27.90;21.48;;;0.10;65.00;;;;;;4932836;29;20566;-88
2022/03/08 00:46:31;;;;;;;27.20;21.98;;;0.10;65.10;;;;;;4925597;29;20214;-88
2022/03/08 00:48:58;;;;;;;27.85;21.65;;;0.10;65.20;;;;;;4928849;29;20198;-88
2022/03/08 00:51:27;;;;;;;31.70;21.25;;;0.20;65.50;;;;;;4923660;29;20229;-89
2022/03/08 00:53:53;;;;;;;25.88;21.67;;;0.10;65.40;;;;;;4929254;29;20199;-88
2022/03/08 00:56:20;;;;;;;25.27;20.33;;;0.10;65.60;;;;;;4926599;29;20221;-88
2022/03/08 00:58:47;;;;;;;25.17;19.63;;;0.10;65.70;;;;;;4940931;28;20182;-88
2022/03/08 01:01:14;;;;;;;26.30;20.10;;;0.00;65.60;;;;;;4938228;29;20230;-88
2022/03/08 01:03:41;;;;;;;22.42;18.63;;;0.00;65.60;;;;;;4920336;29;20202;-88
2022/03/08 01:06:25;;;;;;;25.55;20.40;;;-0.10;65.90;;;;;;4924874;29;20206;-88
2022/03/08 01:08:53;;;;;;;25.73;20.02;;;0.00;65.90;;;;;;4915367;29;20200;-88
2022/03/08 01:11:19;;;;;;;25.40;20.38;;;0.00;65.90;;;;;;4919645;29;20222;-88
2022/03/08 01:13:46;;;;;;;28.70;19.55;;;0.00;65.90;;;;;;4921715;29;20630;-88
2022/03/08 01:16:13;;;;;;;23.63;19.23;;;0.00;66.00;;;;;;4925470;29;20210;-88
2022/03/08 01:18:40;;;;;;;24.35;20.30;;;-0.10;66.10;;;;;;4936521;29;20214;-87
2022/03/08 01:21:06;;;;;;;27.40;20.25;;;-0.10;66.30;;;;;;4923342;29;20235;-89
2022/03/08 01:23:33;;;;;;;23.00;18.33;;;-0.10;66.30;;;;;;4938769;29;20213;-88
2022/03/08 01:26:01;;;;;;;23.48;17.58;;;-0.10;66.40;;;;;;4928782;29;20856;-88
2022/03/08 01:28:28;;;;;;;23.50;19.67;;;-0.10;66.20;;;;;;4927371;29;20210;-88
2022/03/08 01:30:55;;;;;;;25.67;18.30;;;-0.10;66.30;;;;;;4925388;29;20238;-88
2022/03/08 01:33:21;;;;;;;24.10;19.30;;;-0.10;66.30;;;;;;4926136;29;20202;-88
2022/03/08 01:35:48;;;;;;;24.77;19.33;;;-0.10;66.50;;;;;;4925001;29;20708;-88
2022/03/08 01:38:15;;;;;;;21.98;17.38;;;-0.20;66.70;;;;;;4932753;29;20268;-88
2022/03/08 01:40:42;;;;;;;24.05;18.85;;;-0.20;66.90;;;;;;4931627;29;20272;-88
2022/03/08 01:43:10;;;;;;;24.90;18.20;;;-0.20;66.90;;;;;;4918325;29;20217;-88
2022/03/08 01:45:36;;;;;;;21.20;16.05;;;-0.20;66.90;;;;;;4927462;29;20206;-88
2022/03/08 01:48:04;;;;;;;20.75;17.88;;;-0.10;67.00;;;;;;4927917;29;20205;-89
2022/03/08 01:50:31;;;;;;;24.13;17.40;;;-0.10;66.60;;;;;;4926232;29;20232;-88
2022/03/08 01:52:59;;;;;;;26.13;17.52;;;0.00;66.60;;;;;;4927987;29;20580;-88
2022/03/08 01:55:26;;;;;;;24.25;17.75;;;-0.10;66.40;;;;;;4925383;29;20214;-88
2022/03/08 01:57:53;;;;;;;23.73;18.52;;;-0.10;66.60;;;;;;4922987;29;20198;-88
2022/03/08 02:00:31;;;;;;;22.45;18.02;;;-0.10;66.60;;;;;;4915699;29;20219;-88
2022/03/08 02:02:59;;;;;;;19.52;16.92;;;-0.20;66.60;;;;;;4930774;29;20202;-88
2022/03/08 02:05:27;;;;;;;24.63;18.17;;;-0.20;66.90;;;;;;4947875;23;20229;-83
2022/03/08 02:07:54;;;;;;;29.70;17.98;;;-0.30;67.00;;;;;;4944297;29;20198;-84
2022/03/08 02:10:21;;;;;;;23.27;18.67;;;-0.30;67.20;;;;;;4943781;29;20204;-84
2022/03/08 02:12:48;;;;;;;18.95;15.95;;;-0.30;67.40;;;;;;4949729;29;20225;-83
2022/03/08 02:15:16;;;;;;;22.10;17.42;;;-0.30;67.40;;;;;;4936741;29;21949;-81
2022/03/08 02:17:45;;;;;;;21.80;16.98;;;-0.30;67.40;;;;;;4936659;29;20805;-81
2022/03/08 02:20:12;;;;;;;23.25;16.48;;;-0.30;67.40;;;;;;4938726;29;20238;-82
2022/03/08 02:22:42;;;;;;;21.30;16.67;;;-0.30;67.70;;;;;;4954042;28;20226;-83
2022/03/08 02:25:09;;;;;;;21.02;17.40;;;-0.30;67.20;;;;;;4959726;28;20266;-84
2022/03/08 02:27:40;;;;;;;21.50;17.40;;;-0.30;67.10;;;;;;4959752;28;20202;-83
2022/03/08 02:30:08;;;;;;;20.13;15.30;;;-0.30;67.00;;;;;;4940056;28;20187;-80
2022/03/08 02:32:35;;;;;;;19.63;16.85;;;-0.30;67.20;;;;;;4921265;29;20298;-80
2022/03/08 02:35:06;;;;;;;21.85;17.25;;;-0.30;67.40;;;;;;4918440;29;20560;-81
2022/03/08 02:37:38;;;;;;;23.38;18.10;;;-0.30;67.60;;;;;;4917713;29;20196;-81
2022/03/08 02:40:08;;;;;;;22.30;16.27;;;-0.30;67.90;;;;;;4918576;29;22177;-82
2022/03/08 02:42:35;;;;;;;25.15;17.20;;;-0.30;67.90;;;;;;4917478;29;20203;-84
2022/03/08 02:45:02;;;;;;;26.35;17.30;;;-0.40;68.20;;;;;;4918595;29;20231;-81
2022/03/08 02:47:29;;;;;;;22.52;17.48;;;-0.50;68.60;;;;;;4918257;29;20676;-81
2022/03/08 02:49:56;;;;;;;20.85;16.90;;;-0.50;69.30;;;;;;4917822;29;20681;-80
2022/03/08 02:52:22;;;;;;;22.30;16.83;;;-0.50;69.40;;;;;;4919204;29;20233;-81
2022/03/08 02:54:49;;;;;;;21.50;18.67;;;-0.60;69.00;;;;;;4940217;29;20223;-81
2022/03/08 02:57:17;;;;;;;24.58;17.73;;;-0.70;69.10;;;;;;4935579;29;20233;-80
2022/03/08 02:59:44;;;;;;;23.58;18.17;;;-0.70;69.70;;;;;;4926619;29;20211;-82
2022/03/08 03:02:10;;;;;;;21.48;17.33;;;-0.80;70.00;;;;;;4926992;29;20199;-81
2022/03/08 03:04:37;;;;;;;21.92;18.40;;;-0.70;70.50;;;;;;4927258;29;20587;-82
2022/03/08 03:07:04;;;;;;;20.73;16.73;;;-0.60;70.90;;;;;;4924468;29;20223;-81
2022/03/08 03:09:31;;;;;;;20.42;17.70;;;-0.60;70.90;;;;;;4923930;29;20202;-82
2022/03/08 03:11:58;;;;;;;22.25;16.88;;;-0.60;71.30;;;;;;4922003;29;20219;-81
2022/03/08 03:14:26;;;;;;;21.88;17.10;;;-0.70;72.00;;;;;;4922212;29;20210;-82
2022/03/08 03:16:52;;;;;;;24.58;16.40;;;-0.80;72.70;;;;;;4921527;29;20767;-82
2022/03/08 03:19:19;;;;;;;25.52;18.17;;;-0.90;73.20;;;;;;4921370;29;20557;-81
2022/03/08 03:21:46;;;;;;;25.23;16.88;;;-0.90;73.40;;;;;;4932401;29;20199;-80
2022/03/08 03:24:13;;;;;;;20.23;16.50;;;-0.90;73.60;;;;;;4931375;29;20588;-82
2022/03/08 03:26:39;;;;;;;23.23;16.35;;;-1.00;73.60;;;;;;4930843;29;20226;-81
2022/03/08 03:29:06;;;;;;;20.77;15.30;;;-1.00;73.70;;;;;;4938154;29;20201;-81
2022/03/08 03:31:34;;;;;;;25.50;16.48;;;-0.90;73.50;;;;;;4934483;29;20211;-80
2022/03/08 03:34:01;;;;;;;25.35;17.50;;;-1.00;73.30;;;;;;4941826;29;20210;-82
2022/03/08 03:36:28;;;;;;;20.40;15.68;;;-1.00;73.20;;;;;;4924550;29;20230;-82
2022/03/08 03:38:55;;;;;;;18.20;15.02;;;-1.00;72.80;;;;;;4920022;29;20202;-82
2022/03/08 03:41:22;;;;;;;26.55;18.60;;;-0.90;72.70;;;;;;4919376;29;20210;-82
2022/03/08 03:43:48;;;;;;;21.55;17.48;;;-1.00;72.70;;;;;;4919687;29;20211;-81
2022/03/08 03:46:16;;;;;;;23.08;16.05;;;-0.90;72.90;;;;;;4919738;29;20601;-83
2022/03/08 03:48:44;;;;;;;23.27;15.45;;;-1.00;72.80;;;;;;4920080;29;20217;-83
2022/03/08 03:51:11;;;;;;;19.40;14.95;;;-0.80;72.80;;;;;;4919652;29;20231;-83
2022/03/08 03:53:38;;;;;;;27.83;17.85;;;-0.80;72.10;;;;;;4917973;29;20728;-83
2022/03/08 03:56:05;;;;;;;22.52;16.30;;;-0.80;72.50;;;;;;4919256;29;20373;-83
2022/03/08 03:58:32;;;;;;;22.80;17.70;;;-0.90;72.90;;;;;;4919482;29;20214;-83
2022/03/08 04:00:58;;;;;;;23.00;16.95;;;-1.00;73.40;;;;;;4919361;29;20218;-84
2022/03/08 04:03:25;;;;;;;25.23;17.95;;;-1.10;73.70;;;;;;4919072;29;20199;-83
2022/03/08 04:05:53;;;;;;;26.25;17.83;;;-1.10;74.20;;;;;;4919604;29;20230;-83
2022/03/08 04:08:21;;;;;;;23.83;16.77;;;-1.20;74.30;;;;;;4920865;29;20214;-82
2022/03/08 04:10:48;;;;;;;22.63;16.38;;;-1.20;74.70;;;;;;4930002;29;20210;-84
2022/03/08 04:13:15;;;;;;;22.75;18.00;;;-1.20;74.90;;;;;;4918997;29;20309;-83
2022/03/08 04:15:42;;;;;;;22.13;15.80;;;-1.20;74.70;;;;;;4918995;29;20301;-82
2022/03/08 04:18:08;;;;;;;20.67;17.05;;;-1.30;74.90;;;;;;4918783;29;20290;-81
2022/03/08 04:20:35;;;;;;;20.35;15.60;;;-1.20;75.40;;;;;;4918503;29;20234;-82
2022/03/08 04:23:04;;;;;;;18.73;16.30;;;-1.20;74.90;;;;;;4918042;29;20217;-83
2022/03/08 04:25:31;;;;;;;20.60;16.38;;;-1.20;74.50;;;;;;4919088;29;20258;-83
2022/03/08 04:27:58;;;;;;;22.45;16.17;;;-1.10;74.10;;;;;;4921786;29;20203;-81
2022/03/08 04:30:25;;;;;;;21.50;16.70;;;-1.10;73.80;;;;;;4927727;29;20218;-81
2022/03/08 04:32:51;;;;;;;21.42;17.00;;;-1.10;73.60;;;;;;4929957;29;20222;-81
2022/03/08 04:35:18;;;;;;;25.10;18.00;;;-1.20;73.40;;;;;;4928568;29;20841;-82
2022/03/08 04:37:45;;;;;;;20.00;15.00;;;-1.10;73.60;;;;;;4922321;29;20206;-82
2022/03/08 04:40:13;;;;;;;20.98;14.55;;;-1.10;73.80;;;;;;4920037;29;20704;-81
2022/03/08 04:42:40;;;;;;;17.00;15.10;;;-1.10;73.80;;;;;;4928869;29;20214;-81
2022/03/08 04:45:09;;;;;;;20.85;16.05;;;-1.00;73.90;;;;;;4926682;29;20275;-81
2022/03/08 04:47:36;;;;;;;21.65;17.05;;;-0.90;74.00;;;;;;4919970;29;20203;-82
2022/03/08 04:50:04;;;;;;;26.55;18.30;;;-1.00;74.90;;;;;;4918094;29;20347;-83
2022/03/08 04:52:30;;;;;;;23.88;16.25;;;-0.90;75.60;;;;;;4916676;29;20238;-82
2022/03/08 04:54:57;;;;;;;22.95;16.02;;;-1.00;75.60;;;;;;4917445;29;20734;-83
2022/03/08 04:57:25;;;;;;;23.85;17.17;;;-1.10;76.10;;;;;;4918390;29;20686;-82
2022/03/08 04:59:52;;;;;;;20.42;15.63;;;-1.10;75.40;;;;;;4918922;29;20202;-82
2022/03/08 05:02:19;;;;;;;22.08;16.40;;;-1.10;75.90;;;;;;4918286;29;20281;-82
2022/03/08 05:04:46;;;;;;;19.80;15.50;;;-1.10;75.80;;;;;;4918410;29;20632;-82
2022/03/08 05:07:12;;;;;;;18.85;15.27;;;-1.20;75.40;;;;;;4918256;29;20609;-82
2022/03/08 05:09:39;;;;;;;17.60;13.25;;;-1.20;75.20;;;;;;4919042;29;20211;-82
2022/03/08 05:12:08;;;;;;;20.88;15.23;;;-1.10;75.30;;;;;;4930765;29;20233;-81
2022/03/08 05:14:36;;;;;;;23.35;15.63;;;-1.10;75.00;;;;;;4936024;29;20210;-81
2022/03/08 05:17:03;;;;;;;22.15;15.63;;;-1.00;74.60;;;;;;4933277;29;20226;-81
2022/03/08 05:19:30;;;;;;;22.02;17.17;;;-1.00;74.00;;;;;;4924724;29;20240;-82
2022/03/08 05:21:57;;;;;;;19.75;14.70;;;-1.10;73.70;;;;;;4921010;29;20580;-82
2022/03/08 05:24:23;;;;;;;21.30;15.40;;;-1.10;73.70;;;;;;4919826;29;20655;-81
2022/03/08 05:26:50;;;;;;;26.45;16.40;;;-1.10;73.80;;;;;;4919756;29;20227;-82
2022/03/08 05:29:17;;;;;;;21.00;15.73;;;-1.10;74.20;;;;;;4920165;29;20211;-82
2022/03/08 05:31:45;;;;;;;19.58;16.00;;;-1.10;74.50;;;;;;4919240;29;20203;-82
2022/03/08 05:34:12;;;;;;;19.58;14.15;;;-1.10;74.50;;;;;;4931418;29;20231;-83
2022/03/08 05:36:39;;;;;;;20.48;15.38;;;-1.20;74.10;;;;;;4936583;29;20226;-83
2022/03/08 05:39:06;;;;;;;21.52;15.00;;;-1.20;74.20;;;;;;4920659;29;20206;-84
2022/03/08 05:41:34;;;;;;;19.05;13.48;;;-1.30;74.40;;;;;;4918518;29;20214;-82
2022/03/08 05:44:00;;;;;;;20.13;15.25;;;-1.30;74.80;;;;;;4919137;29;20250;-83
2022/03/08 05:46:27;;;;;;;22.90;14.65;;;-1.30;75.20;;;;;;4917974;29;20231;-83
2022/03/08 05:48:55;;;;;;;18.10;14.48;;;-1.40;74.90;;;;;;4924071;29;20210;-83
2022/03/08 05:51:22;;;;;;;17.98;13.88;;;-1.30;75.20;;;;;;4918352;29;20888;-83
2022/03/08 05:53:49;;;;;;;20.73;15.05;;;-1.40;75.30;;;;;;4917606;29;20234;-83
2022/03/08 05:56:15;;;;;;;20.50;15.23;;;-1.30;75.00;;;;;;4917935;29;20226;-83
2022/03/08 05:58:42;;;;;;;21.90;15.23;;;-1.30;74.90;;;;;;4921915;29;20203;-82
2022/03/08 06:01:09;;;;;;;22.65;16.02;;;-1.40;75.20;;;;;;4926047;29;20214;-82
2022/03/08 06:03:35;;;;;;;15.82;14.15;;;-1.40;75.70;;;;;;4925935;29;20207;-81
2022/03/08 06:06:04;;;;;;;22.13;15.02;;;-1.40;75.80;;;;;;4922819;29;20306;-81
2022/03/08 06:08:30;;;;;;;21.85;15.90;;;-1.40;76.60;;;;;;4922998;29;20410;-81
2022/03/08 06:10:57;;;;;;;19.83;15.82;;;-1.30;77.60;;;;;;4930234;29;20191;-84
2022/03/08 06:13:24;;;;;;;23.13;16.33;;;-1.30;77.90;;;;;;4941424;28;20210;-83
2022/03/08 06:15:50;;;;;;;18.23;14.82;;;-1.20;78.20;;;;;;4940987;28;20223;-85
2022/03/08 06:18:17;;;;;;;21.08;15.77;;;-1.20;78.20;;;;;;4928575;28;20195;-83
2022/03/08 06:20:44;;;;;;;21.10;16.27;;;-1.10;78.10;;;;;;4919590;29;20210;-81
2022/03/08 06:23:12;;;;;;;18.08;14.82;;;-1.10;78.10;;;;;;4919271;29;20217;-81
2022/03/08 06:25:39;;;;;;;20.80;15.40;;;-1.00;77.80;;;;;;4919500;29;20223;-81
2022/03/08 06:28:06;;;;;;;18.55;16.17;;;-0.90;77.60;;;;;;4921773;29;20269;-84
2022/03/08 06:30:34;;;;;;;18.58;14.80;;;-0.90;77.00;;;;;;4922491;29;20240;-82
2022/03/08 06:33:00;;;;;;;21.70;15.88;;;-0.90;76.50;;;;;;4921693;29;20222;-82
2022/03/08 06:35:27;;;;;;;19.55;14.48;;;-0.80;76.10;;;;;;4929789;29;20266;-82
2022/03/08 06:37:54;;;;;;;24.63;14.52;;;-0.80;75.60;;;;;;4922893;29;20239;-83
2022/03/08 06:40:22;;;;;;;21.42;14.43;;;-0.70;75.00;;;;;;4921715;29;20210;-82
2022/03/08 06:42:49;;;;;;;16.05;13.15;;;-0.70;74.20;;;;;;4921789;29;20297;-82
2022/03/08 06:45:17;;;;;;;22.35;14.40;;;-0.60;73.40;;;;;;4922323;29;20234;-83
2022/03/08 06:47:43;;;;;;;17.00;13.57;;;-0.50;72.50;;;;;;4921972;29;20326;-82
2022/03/08 06:50:11;;;;;;;20.83;14.80;;;-0.40;72.00;;;;;;4928019;29;20210;-82
2022/03/08 06:52:38;;;;;;;17.95;13.27;;;-0.40;71.50;;;;;;4935722;29;20234;-83
2022/03/08 06:55:06;;;;;;;16.15;13.88;;;-0.30;71.40;;;;;;4943811;28;20220;-85
2022/03/08 06:57:34;;;;;;;23.85;14.02;;;-0.30;71.30;;;;;;4938624;29;20195;-80
2022/03/08 07:00:00;;;;;;;14.07;12.05;;;-0.20;70.70;;;;;;4929519;29;20211;-81
2022/03/08 07:02:27;;;;;;;13.85;11.48;;;-0.20;70.20;;;;;;4929586;29;20207;-83
2022/03/08 07:04:54;;;;;;;15.55;11.90;;;-0.10;69.40;;;;;;4931198;29;20269;-81
2022/03/08 07:07:20;;;;;;;14.13;12.57;;;0.00;68.30;;;;;;4935747;29;20210;-79
2022/03/08 07:09:47;;;;;;;14.30;10.57;;;0.20;67.50;;;;;;4939165;29;20206;-81
2022/03/08 07:12:14;;;;;;;14.52;12.15;;;0.20;66.80;;;;;;4932443;29;20238;-81
2022/03/08 07:14:42;;;;;;;19.60;13.77;;;0.30;67.20;;;;;;4942192;29;20222;-80
2022/03/08 07:17:09;;;;;;;21.65;13.15;;;0.40;68.00;;;;;;4932581;29;20281;-81
2022/03/08 07:19:38;;;;;;;17.80;13.77;;;0.40;68.10;;;;;;4931431;29;20667;-82
2022/03/08 07:22:05;;;;;;;16.27;13.55;;;0.50;67.90;;;;;;4934577;29;20202;-80
2022/03/08 07:24:32;;;;;;;14.93;12.25;;;0.60;67.40;;;;;;4933365;29;20201;-82
2022/03/08 07:26:59;;;;;;;18.15;12.90;;;0.70;67.10;;;;;;4932733;29;20218;-82
2022/03/08 07:29:25;;;;;;;17.55;13.38;;;0.70;66.80;;;;;;4942935;29;20199;-82
2022/03/08 07:31:53;;;;;;;23.63;13.95;;;0.80;66.60;;;;;;4939540;29;20557;-80
2022/03/08 07:34:21;;;;;;;29.00;14.25;;;0.90;66.40;;;;;;4933172;29;20218;-79
2022/03/08 07:36:47;;;;;;;15.48;13.25;;;1.00;66.00;;;;;;4935071;29;20229;-79
2022/03/08 07:39:14;;;;;;;19.42;13.30;;;1.10;65.90;;;;;;4933167;29;20203;-82
2022/03/08 07:41:41;;;;;;;14.57;11.88;;;1.20;65.60;;;;;;4933728;29;20755;-84
2022/03/08 07:44:07;;;;;;;15.48;11.90;;;1.40;65.20;;;;;;4945806;28;20201;-82
2022/03/08 07:46:34;;;;;;;13.93;11.43;;;1.50;64.30;;;;;;4933398;29;20715;-82
2022/03/08 07:49:02;;;;;;;14.23;12.82;;;1.60;63.70;;;;;;4932198;29;20827;-82
2022/03/08 07:51:30;;;;;;;16.85;11.90;;;1.70;62.90;;;;;;4933012;29;20289;-83
2022/03/08 07:53:59;;;;;;;14.55;11.02;;;1.80;62.30;;;;;;4935433;29;20223;-81
2022/03/08 07:56:25;;;;;;;16.20;13.70;;;1.90;61.70;;;;;;4929224;29;20222;-82
2022/03/08 07:58:52;;;;;;;12.48;10.13;;;2.10;61.30;;;;;;4931268;29;20266;-81
2022/03/08 08:01:19;;;;;;;14.45;10.60;;;2.20;60.60;;;;;;4929710;29;20281;-82
2022/03/08 08:03:47;;;;;;;14.43;10.80;;;2.40;59.70;;;;;;4937680;29;20209;-82
2022/03/08 08:06:15;;;;;;;11.05;9.95;;;2.60;59.50;;;;;;4931694;29;20575;-82
2022/03/08 08:08:42;;;;;;;15.13;10.57;;;3.30;59.40;;;;;;4995202;23;20245;-86
2022/03/08 08:11:08;;;;;;;11.45;10.27;;;4.60;58.00;;;;;;4955826;29;20236;-86
2022/03/08 08:13:35;;;;;;;13.83;12.10;;;6.70;55.40;;;;;;4975225;28;20210;-86
2022/03/08 08:16:02;;;;;;;13.03;11.73;;;8.10;51.20;;;;;;4940477;28;20448;-85
2022/03/08 08:18:29;;;;;;;12.80;11.47;;;8.30;48.80;;;;;;4944686;29;20470;-84
2022/03/08 08:20:56;;;;;;;13.70;12.40;;;8.80;47.70;;;;;;4945124;29;20454;-83
2022/03/08 08:23:24;;;;;;;14.17;12.77;;;9.10;46.60;;;;;;4945232;29;20453;-84
2022/03/08 08:25:51;;;;;;;13.90;12.57;;;9.50;45.90;;;;;;4946152;29;20540;-84
2022/03/08 08:28:18;;;;;;;13.90;12.60;;;9.70;45.30;;;;;;4944895;29;20462;-85
2022/03/08 08:30:45;;;;;;;14.90;13.40;;;9.50;45.10;;;;;;4948289;29;20446;-84
2022/03/08 08:33:11;;;;;;;14.17;12.50;;;10.20;43.90;;;;;;4953165;29;20489;-84
2022/03/08 08:35:38;;;;;;;13.33;12.03;;;10.80;42.40;;;;;;4951172;29;20457;-84
2022/03/08 08:38:05;;;;;;;14.17;12.83;;;12.20;41.70;;;;;;4946928;29;20466;-84
2022/03/08 08:40:35;;;;;;;13.20;11.90;;;13.20;39.80;;;;;;4948106;29;20442;-85
2022/03/08 08:43:01;;;;;;;14.23;12.73;;;12.20;39.50;;;;;;4946674;29;20455;-85
2022/03/08 08:45:29;;;;;;;12.03;11.03;;;12.60;39.00;;;;;;4946388;29;20457;-85
2022/03/08 08:47:56;;;;;;;12.50;11.40;;;12.50;39.40;;;;;;4946727;29;20846;-85
2022/03/08 08:50:23;;;;;;;10.17;9.27;;;11.60;38.90;;;;;;4945121;29;20434;-85
2022/03/08 08:52:50;;;;;;;10.90;9.80;;;10.50;39.30;;;;;;4944219;29;20462;-84
2022/03/08 08:55:17;;;;;;;11.80;10.60;;;9.70;42.10;;;;;;4950549;29;20442;-83
2022/03/08 08:57:45;;;;;;;10.73;9.57;;;10.20;42.90;;;;;;4947344;29;20470;-84
2022/03/08 09:00:13;;;;;;;8.53;7.67;;;10.60;41.70;;;;;;4951318;29;20435;-85
2022/03/08 09:02:42;;;;;;;11.33;7.70;;;10.40;40.70;;;;;;4944397;29;20457;-86
2022/03/08 09:05:09;;;;;;;9.60;7.60;;;10.90;40.80;;;;;;4944947;29;20453;-85
2022/03/08 09:07:36;;;;;;;9.07;7.70;;;11.00;39.40;;;;;;4952075;29;20486;-85
2022/03/08 09:10:03;;;;;;;13.20;7.60;;;10.80;39.10;;;;;;4974379;28;20480;-87
2022/03/08 09:12:30;;;;;;;9.73;8.10;;;10.30;39.70;;;;;;4974220;28;20460;-84
2022/03/08 09:14:58;;;;;;;9.87;8.97;;;10.10;40.50;;;;;;4962797;28;20561;-84
2022/03/08 09:17:25;;;;;;;9.60;8.70;;;10.70;40.70;;;;;;4951692;29;20458;-86
2022/03/08 09:19:52;;;;;;;11.30;9.20;;;11.40;39.50;;;;;;4958405;29;20454;-85
2022/03/08 09:22:18;;;;;;;9.40;8.50;;;11.90;38.80;;;;;;4942655;29;20454;-85
2022/03/08 09:24:45;;;;;;;9.17;8.37;;;11.80;38.60;;;;;;4944974;29;20450;-87
2022/03/08 09:27:12;;;;;;;9.07;8.13;;;12.30;38.60;;;;;;4948539;29;20489;-84
2022/03/08 09:29:38;;;;;;;9.07;8.10;;;12.40;37.30;;;;;;4949431;29;20459;-86
2022/03/08 09:32:08;;;;;;;11.80;8.60;;;12.90;37.10;;;;;;4948298;29;20468;-86
2022/03/08 09:34:34;;;;;;;12.50;8.87;;;12.60;36.30;;;;;;4946171;29;20489;-85
2022/03/08 09:37:01;;;;;;;10.50;8.37;;;12.50;36.40;;;;;;4945075;29;20473;-86
2022/03/08 09:39:28;;;;;;;10.53;8.90;;;12.80;36.90;;;;;;4944596;29;20471;-85
2022/03/08 09:41:56;;;;;;;9.67;8.77;;;13.70;36.60;;;;;;4944468;29;20966;-84
2022/03/08 09:44:22;;;;;;;10.63;8.67;;;14.00;35.10;;;;;;4944303;29;20453;-85
2022/03/08 09:46:49;;;;;;;9.80;8.90;;;14.00;34.90;;;;;;4941280;29;20616;-85
2022/03/08 09:49:17;;;;;;;10.10;9.00;;;13.70;35.40;;;;;;4941174;29;20465;-85
2022/03/08 09:51:44;;;;;;;10.00;9.13;;;14.30;34.50;;;;;;4941104;29;20450;-86
2022/03/08 09:54:11;;;;;;;8.33;7.53;;;14.90;34.70;;;;;;4947565;29;20486;-85
2022/03/08 09:56:38;;;;;;;8.37;7.57;;;13.90;32.50;;;;;;4947094;29;20791;-85
2022/03/08 09:59:05;;;;;;;8.53;7.67;;;13.20;33.40;;;;;;4940314;29;20450;-85
2022/03/08 10:01:32;;;;;;;8.80;7.00;;;11.80;34.70;;;;;;4939032;29;20449;-85
2022/03/08 10:04:00;;;;;;;9.27;7.60;;;11.80;35.40;;;;;;4950933;29;20453;-85
2022/03/08 10:06:39;;;;;;;6.93;6.40;;;12.10;35.60;;;;;;4956639;29;20434;-85
2022/03/08 10:09:14;;;;;;;8.60;7.00;;;12.00;35.10;;;;;;4959011;29;20471;-84
2022/03/08 10:11:41;;;;;;;7.70;6.90;;;12.20;34.20;;;;;;4951130;29;20867;-84
2022/03/08 10:14:13;;;;;;;7.17;6.10;;;12.80;33.80;;;;;;4943679;29;20953;-86
2022/03/08 10:16:43;;;;;;;8.17;7.47;;;12.40;33.90;;;;;;4943435;29;20542;-84
2022/03/08 10:19:12;;;;;;;7.83;7.03;;;13.20;34.10;;;;;;4942995;29;20469;-84
2022/03/08 10:21:42;;;;;;;8.13;6.80;;;14.10;32.90;;;;;;4941864;29;20466;-84
2022/03/08 10:24:15;;;;;;;9.13;7.30;;;14.20;31.80;;;;;;4953912;29;20433;-84
2022/03/08 10:26:47;;;;;;;8.13;6.73;;;14.20;31.80;;;;;;4960845;29;20430;-84
2022/03/08 10:29:14;;;;;;;8.47;7.23;;;14.40;31.60;;;;;;4960803;28;20457;-84
2022/03/08 10:31:41;;;;;;;7.60;6.80;;;14.40;30.60;;;;;;4959940;29;20464;-86
2022/03/08 10:34:10;;;;;;;6.90;6.30;;;14.10;30.70;;;;;;4958177;28;20482;-84
2022/03/08 10:36:37;;;;;;;7.37;6.77;;;14.60;31.20;;;;;;4956794;29;20553;-84
2022/03/08 10:39:18;;;;;;;7.47;6.70;;;15.50;30.80;;;;;;4946767;29;20543;-84
2022/03/08 10:41:50;;;;;;;7.40;6.60;;;15.80;29.70;;;;;;4952252;29;20465;-85
2022/03/08 10:44:30;;;;;;;8.20;7.03;;;16.30;29.70;;;;;;4946867;29;20455;-85
2022/03/08 10:47:06;;;;;;;7.00;6.40;;;15.50;28.80;;;;;;4947277;29;21024;-84
2022/03/08 10:49:33;;;;;;;10.93;7.33;;;15.30;29.40;;;;;;4943932;29;20442;-85
2022/03/08 10:52:02;;;;;;;8.73;6.70;;;15.00;29.10;;;;;;4948824;29;20456;-86
2022/03/08 10:54:31;;;;;;;7.47;6.47;;;14.80;29.60;;;;;;4942291;29;20473;-84
2022/03/08 10:56:58;;;;;;;6.83;6.23;;;15.00;29.40;;;;;;4954831;28;20460;-88
2022/03/08 10:59:26;;;;;;;6.40;5.80;;;15.10;29.10;;;;;;4955023;29;20447;-85
2022/03/08 11:01:52;;;;;;;8.73;6.53;;;16.10;29.30;;;;;;4959436;28;20446;-88
2022/03/08 11:04:22;;;;;;;6.47;5.87;;;15.90;28.20;;;;;;4954721;29;20451;-85
2022/03/08 11:06:52;;;;;;;6.47;5.40;;;16.00;28.50;;;;;;4958702;29;20445;-86
2022/03/08 11:09:20;;;;;;;9.00;6.77;;;16.00;28.10;;;;;;4948389;29;20544;-85
2022/03/08 11:11:49;;;;;;;6.80;6.10;;;15.40;28.50;;;;;;4944530;29;20434;-84
2022/03/08 11:14:16;;;;;;;7.70;6.67;;;16.10;28.70;;;;;;4961365;29;20504;-88
2022/03/08 11:16:46;;;;;;;8.10;7.03;;;16.90;28.20;;;;;;4946702;29;20448;-85
2022/03/08 11:19:14;;;;;;;7.13;6.13;;;17.10;27.70;;;;;;4945603;29;20466;-84
2022/03/08 11:21:41;;;;;;;6.97;5.57;;;17.40;27.40;;;;;;4954538;29;20927;-85
2022/03/08 11:24:10;;;;;;;5.90;5.43;;;17.10;27.00;;;;;;4942124;29;20808;-85
2022/03/08 11:26:41;;;;;;;7.40;6.70;;;17.70;27.00;;;;;;4939876;29;20953;-84
2022/03/08 11:29:09;;;;;;;6.53;5.93;;;18.40;26.10;;;;;;4940979;29;20442;-85
2022/03/08 11:31:38;;;;;;;7.63;6.93;;;19.20;26.80;;;;;;4939996;29;20458;-86
2022/03/08 11:34:13;;;;;;;7.23;6.50;;;18.80;25.60;;;;;;4939268;29;20905;-85
2022/03/08 11:36:46;;;;;;;6.77;6.17;;;18.60;26.10;;;;;;4941263;29;20453;-85
2022/03/08 11:39:18;;;;;;;7.43;6.70;;;18.30;25.80;;;;;;4939714;29;20457;-86
2022/03/08 11:41:47;;;;;;;7.47;6.77;;;18.70;25.90;;;;;;4945362;29;20933;-86
2022/03/08 11:44:23;;;;;;;6.60;6.00;;;17.40;25.90;;;;;;4937312;29;20451;-85
2022/03/08 11:47:09;;;;;;;10.13;8.43;;;16.70;26.70;;;;;;4946061;29;20468;-85
2022/03/08 11:49:44;;;;;;;7.10;6.40;;;17.40;26.80;;;;;;4943873;29;20460;-85
2022/03/08 11:52:17;;;;;;;6.90;6.30;;;18.10;26.60;;;;;;4941714;29;20473;-85
2022/03/08 11:54:54;;;;;;;7.00;6.30;;;19.70;26.20;;;;;;4940348;29;20841;-85
2022/03/08 11:57:56;;;;;;;6.70;6.10;;;21.00;24.80;;;;;;4940463;29;20477;-85
2022/03/08 12:00:27;;;;;;;7.97;6.80;;;19.70;24.70;;;;;;4940498;29;20473;-85
2022/03/08 12:02:57;;;;;;;9.07;8.20;;;19.80;25.20;;;;;;4945513;29;20549;-85
2022/03/08 12:05:46;;;;;;;7.20;6.70;;;19.20;25.20;;;;;;4956081;29;20430;-88
2022/03/08 12:08:43;;;;;;;7.70;7.00;;;18.60;25.80;;;;;;4923424;29;21026;-85
2022/03/08 12:11:45;;;;;;;6.70;6.10;;;18.80;25.80;;;;;;4902850;29;20458;-85
2022/03/08 12:14:18;;;;;;;7.23;6.60;;;20.00;25.40;;;;;;4928718;29;20567;-85
2022/03/08 12:16:50;;;;;;;7.33;6.63;;;19.10;24.70;;;;;;4941478;29;20453;-86
2022/03/08 12:19:30;;;;;;;8.80;7.60;;;18.30;25.40;;;;;;4943341;29;20427;-85
2022/03/08 12:21:57;;;;;;;7.83;6.97;;;18.30;26.00;;;;;;4945686;29;20439;-86
2022/03/08 12:24:25;;;;;;;8.47;7.77;;;18.10;26.20;;;;;;4942213;29;20450;-85
2022/03/08 12:27:03;;;;;;;8.73;7.90;;;18.90;26.20;;;;;;4941388;29;20449;-85
2022/03/08 12:29:33;;;;;;;7.63;7.07;;;20.20;25.20;;;;;;4941948;29;20446;-85
2022/03/08 12:32:33;;;;;;;7.87;7.17;;;19.60;24.50;;;;;;4938508;29;20538;-85
2022/03/08 12:35:04;;;;;;;8.23;6.30;;;18.70;24.70;;;;;;4938205;29;20502;-85
2022/03/08 12:37:37;;;;;;;9.70;6.77;;;18.10;25.40;;;;;;4938279;29;20900;-84
2022/03/08 12:40:06;;;;;;;8.37;7.60;;;17.60;25.70;;;;;;4937791;29;20900;-84
2022/03/08 12:42:35;;;;;;;7.40;6.80;;;17.20;26.10;;;;;;4939809;29;20472;-84